Flight Track Log - Related Links

Times and Time Zones

All times are in EDT time to prevent confusion due to time zone crossing. See the N502QS flight status page for this flight to view local times or setup timezone preferences in your user account.


Time Position Orientation Groundspeed Altitude Reporting Facility
EDT Latitude Longitude Course Direction KTS MPH feet Rate Location/Type
Thu 04:45:22 PM 41.0500 -73.7000 246° West 187 215 1,900  Level New York TRACON
Thu 04:46:22 PM 41.0333 -73.7500 246° West 221 254 3,100 2,450 Climbing New York TRACON
Thu 04:47:22 PM 41.0167 -73.8500 258° West 264 304 6,800 3,350 Climbing New York TRACON
Thu 04:48:22 PM 40.9833 -73.9500 246° West 290 334 9,800 2,650 Climbing New York TRACON
Thu 04:49:22 PM 40.9500 -74.0500 246° West 335 386 12,100 2,600 Climbing New York TRACON
Thu 04:50:22 PM 40.9500 -74.1833 270° West 389 448 15,000 2,450 Climbing New York TRACON
Thu 04:51:22 PM 40.9500 -74.3333 270° West 413 475 17,000 1,263 Climbing New York TRACON
Thu 04:51:57 PM 40.9428 -74.4219 264° West 412 474 17,000  Level New York Center
Thu 04:52:57 PM 40.9378 -74.5753 268° West 427 491 17,000 50 Level New York Center
Thu 04:53:57 PM 40.9336 -74.7069 268° West 416 479 17,100 850 Climbing New York Center
Thu 04:54:57 PM 40.9289 -74.8467 267° West 421 484 18,700 2,050 Climbing New York Center
Thu 04:55:57 PM 40.9181 -75.0328 266° West 421 484 21,200 2,350 Climbing New York Center
Thu 04:56:57 PM 40.8872 -75.1928 256° West 428 493 23,400 2,100 Climbing New York Center
Thu 04:57:57 PM 40.8519 -75.3525 254° West 451 519 25,400 1,750 Climbing New York Center
Thu 04:58:57 PM 40.8183 -75.5147 255° West 457 526 26,900 1,650 Climbing New York Center
Thu 04:59:57 PM 40.7844 -75.6850 255° West 468 539 28,700 1,550 Climbing New York Center
Thu 05:00:57 PM 40.7561 -75.8611 258° West 482 555 30,000 1,550 Climbing New York Center
Thu 05:01:57 PM 40.7736 -76.0294 278° West 464 534 31,800 1,900 Climbing New York Center
Thu 05:02:57 PM 40.7972 -76.2014 280° West 475 547 33,800 2,100 Climbing New York Center
Thu 05:03:57 PM 40.8147 -76.3644 278° West 470 541 36,000 2,200 Climbing New York Center
Thu 05:04:57 PM 40.8339 -76.5253 279° West 459 528 38,200 1,900 Climbing New York Center
Thu 05:05:57 PM 40.8531 -76.6861 279° West 453 521 39,800 850 Climbing New York Center
Thu 05:06:57 PM 40.8719 -76.8497 279° West 448 516 39,900 100 Climbing New York Center
Thu 05:07:57 PM 40.8903 -77.0186 278° West 454 522 40,000 50 Climbing New York Center
Thu 05:08:57 PM 40.9086 -77.1825 278° West 454 522 40,000 -50 Level New York Center
Thu 05:09:57 PM 40.9242 -77.3158 279° West 454 522 39,900 -39 Descending New York Center
Thu 05:11:30 PM 40.9536 -77.5917 278° West 475 547 39,900  Level Cleveland Center
Thu 05:12:30 PM 40.9703 -77.7589 278° West 470 541 39,900  Level Cleveland Center
Thu 05:13:30 PM 40.9869 -77.9258 278° West 465 535 39,900  Level Cleveland Center
Thu 05:14:30 PM 41.0053 -78.0931 278° West 460 529 39,900  Level Cleveland Center
Thu 05:15:30 PM 41.0236 -78.2767 278° West 466 536 39,900  Level Cleveland Center
Thu 05:16:31 PM 41.0436 -78.4467 279° West 466 536 39,900  Level Cleveland Center
Thu 05:17:30 PM 41.0592 -78.6197 277° West 466 536 39,900  Level Cleveland Center
Thu 05:18:30 PM 41.0744 -78.7844 277° West 466 536 39,900  Level Cleveland Center
Thu 05:19:30 PM 41.0917 -78.9522 278° West 461 531 39,900  Level Cleveland Center
Thu 05:20:30 PM 41.1064 -79.1197 277° West 461 531 39,900  Level Cleveland Center
Thu 05:21:30 PM 41.1208 -79.2850 277° West 461 531 39,900  Level Cleveland Center
Thu 05:22:30 PM 41.1353 -79.4500 277° West 461 531 39,900  Level Cleveland Center
Thu 05:23:31 PM 41.1492 -79.6042 277° West 461 531 39,900  Level Cleveland Center
Thu 05:24:30 PM 41.1608 -79.7722 275° West 466 536 39,900  Level Cleveland Center
Thu 05:25:30 PM 41.1764 -79.9375 277° West 461 531 39,900  Level Cleveland Center
Thu 05:26:30 PM 41.1919 -80.0975 277° West 455 524 39,900  Level Cleveland Center
Thu 05:27:30 PM 41.2050 -80.2658 276° West 455 524 39,900  Level Cleveland Center
Thu 05:28:30 PM 41.2200 -80.4478 276° West 455 524 39,900  Level Cleveland Center
Thu 05:29:30 PM 41.2303 -80.6136 275° West 455 524 39,900  Level Cleveland Center
Thu 05:30:30 PM 41.2428 -80.7819 276° West 460 529 39,900  Level Cleveland Center
Thu 05:31:30 PM 41.2547 -80.9478 276° West 465 535 39,900  Level Cleveland Center
Thu 05:32:30 PM 41.2686 -81.1164 276° West 465 535 39,900  Level Cleveland Center
Thu 05:33:30 PM 41.2783 -81.2656 275° West 460 529 39,900 50 Level Cleveland Center
Thu 05:34:30 PM 41.2958 -81.4372 278° West 466 536 40,000  Climbing Cleveland Center
Thu 05:35:30 PM 41.3050 -81.6086 274° West 466 536 39,900 750 Descending Cleveland Center
Thu 05:36:30 PM 41.3158 -81.7747 275° West 466 536 41,500 1,500 Climbing Cleveland Center
Thu 05:37:30 PM 41.3286 -81.9381 276° West 460 529 42,900 700 Climbing Cleveland Center
Thu 05:38:30 PM 41.3389 -82.1264 274° West 463 533 42,900 50 Level Cleveland Center
Thu 05:39:30 PM 41.3489 -82.2925 275° West 468 539 43,000  Climbing Cleveland Center
Thu 05:40:30 PM 41.3589 -82.4533 275° West 445 512 42,900 -50 Descending Cleveland Center
Thu 05:41:30 PM 41.3669 -82.5975 274° West 440 506 42,900  Level Cleveland Center
Thu 05:42:30 PM 41.3764 -82.7636 274° West 440 506 42,900  Level Cleveland Center
Thu 05:43:30 PM 41.3856 -82.9272 274° West 445 512 42,900  Level Cleveland Center
Thu 05:44:30 PM 41.3967 -83.0883 275° West 445 512 42,900  Level Cleveland Center
Thu 05:45:30 PM 41.4031 -83.2739 273° West 445 512 42,900 -800 Level Cleveland Center
Thu 05:46:30 PM 41.4136 -83.4350 275° West 445 512 41,300 -1,650 Descending Cleveland Center
Thu 05:47:30 PM 41.4197 -83.6014 273° West 445 512 39,600 -1,750 Descending Cleveland Center
Thu 05:48:30 PM 41.4297 -83.7764 274° West 450 518 37,800 -1,750 Descending Cleveland Center
Thu 05:49:30 PM 41.4394 -83.9486 274° West 462 532 36,100 -900 Descending Cleveland Center
Thu 05:50:30 PM 41.4475 -84.0906 274° West 473 544 36,000 -107 Descending Cleveland Center
Thu 05:51:22 PM 41.4569 -84.2575 274° West 486 559 35,900 -1,263 Descending Chicago Center
Thu 05:52:24 PM 41.4656 -84.4361 274° West 485 558 33,600 -2,323 Descending Chicago Center
Thu 05:53:26 PM 41.4731 -84.6089 273° West 471 542 31,100 -1,728 Descending Chicago Center
Thu 05:54:29 PM 41.4828 -84.8228 274° West 480 552 30,000 -1,210 Descending Chicago Center
Thu 05:55:30 PM 41.4892 -84.9992 273° West 479 551 28,600 -1,463 Descending Chicago Center
Thu 05:56:32 PM 41.4950 -85.1617 273° West 445 512 27,000 -1,548 Descending Chicago Center
Thu 05:57:34 PM 41.4992 -85.3214 272° West 428 493 25,400 -1,488 Descending Chicago Center
Thu 05:58:37 PM 41.5053 -85.4858 273° West 430 495 23,900 -1,680 Descending Chicago Center
Thu 05:59:39 PM 41.5111 -85.6431 273° West 422 486 21,900 -2,129 Descending Chicago Center
Thu 06:00:41 PM 41.5167 -85.7953 273° West 413 475 19,500 -2,177 Descending Chicago Center
Thu 06:01:43 PM 41.5217 -85.9478 273° West 412 474 17,400 -2,274 Descending Chicago Center
Thu 06:02:45 PM 41.5239 -86.1231 271° West 397 457 14,800 -2,323 Descending Chicago Center
Thu 06:03:47 PM 41.5225 -86.2669 269° West 389 448 12,600 -1,984 Descending Chicago Center
Thu 06:04:49 PM 41.5222 -86.4072 270° West 381 438 10,700 -1,258 Descending Chicago Center
Thu 06:05:51 PM 41.5206 -86.5469 269° West 377 434 10,000 -339 Descending Chicago Center
Thu 06:06:53 PM 41.5194 -86.6819 269° West 361 415 10,000 -384 Level Chicago Center
Thu 06:07:56 PM 41.5189 -86.8075 270° West 299 344 9,200 -864 Descending Chicago Center
Thu 06:08:58 PM 41.5178 -86.9133 269° West 288 331 8,200 -919 Descending Chicago Center
Thu 06:10:00 PM 41.5181 -87.0144 270° West 278 320 7,300 -919 Descending Chicago Center
Thu 06:11:02 PM 41.5158 -87.1167 268° West 274 315 6,300 -726 Descending Chicago Center
Thu 06:12:04 PM 41.5247 -87.2156 277° West 270 311 5,800 -1,113 Descending Chicago Center
Thu 06:13:06 PM 41.5394 -87.3339 279° West 270 311 4,000 -871 Descending Chicago Center
Thu 06:14:08 PM 41.5508 -87.4303 279° West 267 307 4,000  Level Chicago Center
Thu 06:15:10 PM 41.5639 -87.5256 280° West 265 305 4,000  Level Chicago Center
Thu 06:16:12 PM 41.5753 -87.6217 279° West 265 305 4,000  Level Chicago Center
Thu 06:17:14 PM 41.5872 -87.7378 278° West 265 305 4,000 -194 Level Chicago Center
Thu 06:18:16 PM 41.5986 -87.8336 279° West 265 305 3,600 -480 Descending Chicago Center
Thu 06:19:19 PM 41.6319 -87.9094 300° West 260 299 3,000 -288 Descending Chicago Center
Thu 06:20:21 PM 41.6817 -87.8856 20° North 215 247 3,000 -290 Level Chicago Center
Thu 06:21:23 PM 41.7156 -87.8428 43° Northeast 188 216 2,400 -774 Descending Chicago Center
Thu 06:22:25 PM 41.7533 -87.7931 44° Northeast 170 196 1,400 -677 Descending Chicago Center
Thu 06:23:27 PM 41.7775 -87.7622 44° Northeast 160 184 1,000 -387 Descending Chicago Center

Login

Don't have an account? Register now (free) for customized features, flight alerts, and more!